createdAt,value
2022-12-08T00:00:10.559Z,20.87
2022-12-08T00:01:22.018Z,20.22
2022-12-08T00:02:26.543Z,20.38
2022-12-08T00:03:35.357Z,19.34
2022-12-08T00:05:01.734Z,19.49
2022-12-08T00:06:23.164Z,20.47
2022-12-08T00:07:42.459Z,19.77
2022-12-08T00:09:00.832Z,19.25
2022-12-08T00:10:39.849Z,19.93
2022-12-08T00:11:31.434Z,20.00
2022-12-08T00:12:38.455Z,20.19
2022-12-08T00:13:41.940Z,20.18
2022-12-08T00:14:50.607Z,19.58
2022-12-08T00:15:54.104Z,19.85
2022-12-08T00:17:01.440Z,20.16
2022-12-08T00:18:06.760Z,19.62
2022-12-08T00:19:15.295Z,19.60
2022-12-08T00:20:18.850Z,19.49
2022-12-08T00:21:24.944Z,18.72
2022-12-08T00:22:32.621Z,20.44
2022-12-08T00:23:36.826Z,19.94
2022-12-08T00:24:45.747Z,19.36
2022-12-08T00:25:49.211Z,20.02
2022-12-08T00:26:55.446Z,19.51
2022-12-08T00:27:59.884Z,19.49
2022-12-08T00:29:06.909Z,20.08
2022-12-08T00:30:11.652Z,19.68
2022-12-08T00:31:17.933Z,20.06
2022-12-08T00:32:21.617Z,20.18
2022-12-08T00:33:28.244Z,19.76
2022-12-08T00:34:38.770Z,20.91
2022-12-08T00:35:43.426Z,20.13
2022-12-08T00:36:50.166Z,20.98
2022-12-08T00:37:59.078Z,21.08
2022-12-08T00:39:06.965Z,19.95
2022-12-08T00:40:14.863Z,20.03
2022-12-08T00:41:45.288Z,20.41
2022-12-08T00:42:48.807Z,20.16
2022-12-08T00:43:54.850Z,20.06
2022-12-08T00:44:58.222Z,19.80
2022-12-08T00:46:05.099Z,19.63
2022-12-08T00:47:08.611Z,19.66
2022-12-08T00:48:15.093Z,19.48
2022-12-08T00:49:19.553Z,19.67
2022-12-08T00:50:28.294Z,19.62
2022-12-08T00:51:33.094Z,20.07
2022-12-08T00:52:39.430Z,18.45
2022-12-08T00:53:42.881Z,19.00
2022-12-08T00:54:48.941Z,18.48
2022-12-08T00:55:52.349Z,17.67
2022-12-08T00:56:59.772Z,17.48
2022-12-08T00:58:03.155Z,17.78
2022-12-08T00:59:10.750Z,17.57
2022-12-08T01:00:18.323Z,18.15
2022-12-08T01:01:21.908Z,18.36
2022-12-08T01:02:28.848Z,19.28
2022-12-08T01:03:32.350Z,18.20
2022-12-08T01:04:38.739Z,18.60
2022-12-08T01:05:44.767Z,17.36
2022-12-08T01:06:52.310Z,17.49
2022-12-08T01:07:59.285Z,17.60
2022-12-08T01:09:03.015Z,17.31
2022-12-08T01:10:11.628Z,18.10
2022-12-08T01:11:18.537Z,19.02
2022-12-08T01:12:24.531Z,18.48
2022-12-08T01:13:29.222Z,19.53
2022-12-08T01:14:35.799Z,21.10
2022-12-08T01:15:39.206Z,18.85
2022-12-08T01:16:46.530Z,19.76
2022-12-08T01:17:49.971Z,19.71
2022-12-08T01:18:57.595Z,18.45
2022-12-08T01:20:02.692Z,20.49
2022-12-08T01:21:11.806Z,21.53
2022-12-08T01:22:17.833Z,19.59
2022-12-08T01:23:21.486Z,19.60
2022-12-08T01:24:28.381Z,18.07
2022-12-08T01:25:34.361Z,17.80
2022-12-08T01:26:40.439Z,18.65
2022-12-08T01:27:43.859Z,18.70
2022-12-08T01:28:51.123Z,19.10
2022-12-08T01:29:55.446Z,19.28
2022-12-08T01:31:02.745Z,18.71
2022-12-08T01:32:06.500Z,18.98
2022-12-08T01:33:12.538Z,21.11
2022-12-08T01:34:16.219Z,19.19
2022-12-08T01:35:23.107Z,18.96
2022-12-08T01:36:32.221Z,18.67
2022-12-08T01:37:39.774Z,19.71
2022-12-08T01:38:43.256Z,19.27
2022-12-08T01:39:49.413Z,18.04
2022-12-08T01:40:53.594Z,18.02
2022-12-08T01:41:59.652Z,18.54
2022-12-08T01:43:03.094Z,18.56
2022-12-08T01:44:53.733Z,18.72
2022-12-08T01:46:00.775Z,19.14
2022-12-08T01:47:04.688Z,18.49
2022-12-08T01:48:19.724Z,18.55
2022-12-08T01:49:30.929Z,18.64
2022-12-08T01:50:39.005Z,18.40
2022-12-08T01:51:57.783Z,18.65
2022-12-08T01:53:13.917Z,18.78
2022-12-08T01:54:20.041Z,17.88
2022-12-08T01:55:36.485Z,17.85
2022-12-08T01:56:55.230Z,19.23
2022-12-08T01:58:14.054Z,18.13
2022-12-08T01:59:19.743Z,18.14
2022-12-08T02:00:29.814Z,18.09
2022-12-08T02:01:33.846Z,18.11
2022-12-08T02:02:53.058Z,18.39
2022-12-08T02:04:01.882Z,18.81
2022-12-08T02:05:10.743Z,18.70
2022-12-08T02:06:16.897Z,18.00
2022-12-08T02:07:27.253Z,18.18
2022-12-08T02:08:33.474Z,18.41
2022-12-08T02:09:44.696Z,17.88
2022-12-08T02:10:50.329Z,19.66
2022-12-08T02:12:02.625Z,20.26
2022-12-08T02:13:11.630Z,20.69
2022-12-08T02:14:18.317Z,20.26
2022-12-08T02:15:39.337Z,19.10
2022-12-08T02:17:02.143Z,19.99
2022-12-08T02:18:34.268Z,19.36
2022-12-08T02:20:25.275Z,19.24
2022-12-08T02:21:42.341Z,18.44
2022-12-08T02:23:04.605Z,19.28
2022-12-08T02:24:23.386Z,18.46
2022-12-08T02:25:50.372Z,20.01
2022-12-08T02:27:39.676Z,18.32
2022-12-08T02:29:35.051Z,19.26
2022-12-08T02:30:57.683Z,20.37
2022-12-08T02:32:38.835Z,21.61
2022-12-08T02:34:21.597Z,21.31
2022-12-08T02:35:37.956Z,22.07
2022-12-08T02:37:02.207Z,19.76
2022-12-08T02:38:21.651Z,19.99
2022-12-08T02:39:47.127Z,20.72
2022-12-08T02:41:05.229Z,20.08
2022-12-08T02:42:25.999Z,21.19
2022-12-08T02:43:43.310Z,19.70
2022-12-08T02:45:00.966Z,20.17
2022-12-08T02:46:16.535Z,20.72
2022-12-08T02:47:25.912Z,18.73
2022-12-08T02:48:36.114Z,18.98
2022-12-08T02:49:45.177Z,18.65
2022-12-08T02:50:48.825Z,18.12
2022-12-08T02:51:54.775Z,17.16
2022-12-08T02:52:58.304Z,16.46
2022-12-08T02:54:07.394Z,17.01
2022-12-08T02:55:23.614Z,17.38
2022-12-08T02:57:03.516Z,16.64
2022-12-08T02:58:32.385Z,16.81
2022-12-08T03:00:05.420Z,16.34
2022-12-08T03:01:40.737Z,16.33
2022-12-08T03:03:07.541Z,16.82
2022-12-08T03:04:27.110Z,16.17
2022-12-08T03:06:00.918Z,14.84
2022-12-08T03:07:18.562Z,16.58
2022-12-08T03:08:33.806Z,16.58
2022-12-08T03:09:51.112Z,16.23
2022-12-08T03:11:08.760Z,16.55
2022-12-08T03:12:26.775Z,16.96
2022-12-08T03:13:42.574Z,16.14
2022-12-08T03:14:56.322Z,16.75
2022-12-08T03:16:09.193Z,17.61
2022-12-08T03:17:19.848Z,18.39
2022-12-08T03:18:32.641Z,18.13
2022-12-08T03:19:45.769Z,17.59
2022-12-08T03:20:52.664Z,18.24
2022-12-08T03:22:05.848Z,18.75
2022-12-08T03:23:17.876Z,18.20
2022-12-08T03:24:24.407Z,18.19
2022-12-08T03:25:38.155Z,18.44
2022-12-08T03:26:50.915Z,18.49
2022-12-08T03:27:58.200Z,18.40
2022-12-08T03:29:01.930Z,17.70
2022-12-08T03:30:10.937Z,19.64
2022-12-08T03:31:19.695Z,19.50
2022-12-08T03:32:35.445Z,18.76
2022-12-08T03:33:50.331Z,20.03
2022-12-08T03:35:03.709Z,19.90
2022-12-08T03:36:13.614Z,19.67
2022-12-08T03:37:20.430Z,19.69
2022-12-08T03:38:25.129Z,19.97
2022-12-08T03:39:32.269Z,19.46
2022-12-08T03:40:36.173Z,20.43
2022-12-08T03:41:42.229Z,19.45
2022-12-08T03:42:45.615Z,19.77
2022-12-08T03:43:55.349Z,20.31
2022-12-08T03:44:59.568Z,21.02
2022-12-08T03:46:05.899Z,20.56
2022-12-08T03:47:09.514Z,21.13
2022-12-08T03:48:15.458Z,21.11
2022-12-08T03:49:19.022Z,22.07
2022-12-08T03:50:26.699Z,20.68
2022-12-08T03:51:32.657Z,21.27
2022-12-08T03:52:38.677Z,21.66
2022-12-08T03:53:43.486Z,20.56
2022-12-08T03:54:49.456Z,20.45
2022-12-08T03:55:54.264Z,21.48
2022-12-08T03:57:00.356Z,20.53
2022-12-08T03:58:03.768Z,20.11
2022-12-08T03:59:10.817Z,20.52
2022-12-08T04:00:17.529Z,21.10
2022-12-08T04:01:25.734Z,20.92
2022-12-08T04:02:29.159Z,20.80
2022-12-08T04:03:35.209Z,20.32
2022-12-08T04:04:41.187Z,19.78
2022-12-08T04:05:44.569Z,20.28
2022-12-08T04:06:54.336Z,20.19
2022-12-08T04:07:58.911Z,19.52
2022-12-08T04:09:05.040Z,19.08
2022-12-08T04:10:10.724Z,19.95
2022-12-08T04:11:17.190Z,19.98
2022-12-08T04:12:21.692Z,19.98
2022-12-08T04:13:27.710Z,20.38
2022-12-08T04:14:31.095Z,19.88
2022-12-08T04:15:37.167Z,20.05
2022-12-08T04:16:40.732Z,20.30
2022-12-08T04:17:47.596Z,20.07
2022-12-08T04:18:51.535Z,20.04
2022-12-08T04:19:57.667Z,21.03
2022-12-08T04:21:01.428Z,21.17
2022-12-08T04:22:10.404Z,20.89
2022-12-08T04:23:14.924Z,21.06
2022-12-08T04:24:21.209Z,20.99
2022-12-08T04:25:24.556Z,20.88
2022-12-08T04:26:30.612Z,21.04
2022-12-08T04:27:33.968Z,20.40
2022-12-08T04:28:40.924Z,20.03
2022-12-08T04:29:44.468Z,20.78
2022-12-08T04:30:52.069Z,20.42
2022-12-08T04:31:55.512Z,21.23
2022-12-08T04:33:01.893Z,21.40
2022-12-08T04:34:06.120Z,20.55
2022-12-08T04:35:12.800Z,20.00
2022-12-08T04:36:16.444Z,19.99
2022-12-08T04:37:25.051Z,19.71
2022-12-08T04:38:29.170Z,20.91
2022-12-08T04:39:35.988Z,21.43
2022-12-08T04:40:40.247Z,21.29
2022-12-08T04:41:46.209Z,22.49
2022-12-08T04:42:50.035Z,22.06
2022-12-08T04:43:56.016Z,22.21
2022-12-08T04:45:00.247Z,23.78
2022-12-08T04:46:10.859Z,23.80
2022-12-08T04:47:17.048Z,23.95
2022-12-08T04:48:23.188Z,25.37
2022-12-08T04:49:29.255Z,26.43
2022-12-08T04:50:33.657Z,26.32
2022-12-08T04:51:39.765Z,25.84
2022-12-08T04:52:45.916Z,26.85
2022-12-08T04:53:52.186Z,25.05
2022-12-08T04:54:55.812Z,22.83
2022-12-08T04:56:03.240Z,23.48
2022-12-08T04:57:06.735Z,26.53
2022-12-08T04:58:16.710Z,24.12
2022-12-08T04:59:20.386Z,22.13
2022-12-08T05:00:26.952Z,20.47
2022-12-08T05:01:31.277Z,23.06
2022-12-08T05:02:37.854Z,22.84
2022-12-08T05:03:44.204Z,22.94
2022-12-08T05:04:47.861Z,22.19
2022-12-08T05:05:54.284Z,21.05
2022-12-08T05:07:01.310Z,19.73
2022-12-08T05:08:10.276Z,20.52
2022-12-08T05:09:16.342Z,22.59
2022-12-08T05:10:23.768Z,21.83
2022-12-08T05:11:29.846Z,22.52
2022-12-08T05:12:34.369Z,21.06
2022-12-08T05:13:40.772Z,19.98
2022-12-08T05:14:44.324Z,19.57
2022-12-08T05:15:50.384Z,21.01
2022-12-08T05:16:54.035Z,23.19
2022-12-08T05:18:01.013Z,22.87
2022-12-08T05:19:05.616Z,22.35
2022-12-08T05:20:14.413Z,22.43
2022-12-08T05:21:17.964Z,21.48
2022-12-08T05:22:25.359Z,21.78
2022-12-08T05:23:35.431Z,21.79
2022-12-08T05:24:43.985Z,23.51
2022-12-08T05:25:53.587Z,23.23
2022-12-08T05:26:59.737Z,22.08
2022-12-08T05:28:32.648Z,21.09
2022-12-08T05:29:31.161Z,23.31
2022-12-08T05:30:37.135Z,23.33
2022-12-08T05:31:40.778Z,21.25
2022-12-08T05:32:47.143Z,21.33
2022-12-08T05:33:52.673Z,21.62
2022-12-08T05:34:59.597Z,21.90
2022-12-08T05:36:04.225Z,23.04
2022-12-08T05:37:10.934Z,23.27
2022-12-08T05:38:19.463Z,23.04
2022-12-08T05:39:29.082Z,22.60
2022-12-08T05:40:36.363Z,21.93
2022-12-08T05:41:41.789Z,22.14
2022-12-08T05:42:49.986Z,21.83
2022-12-08T05:43:54.173Z,22.39
2022-12-08T05:45:00.333Z,22.71
2022-12-08T05:46:05.126Z,24.08
2022-12-08T05:47:11.403Z,23.15
2022-12-08T05:48:14.938Z,22.86
2022-12-08T05:49:21.493Z,21.89
2022-12-08T05:50:28.113Z,21.32
2022-12-08T05:51:38.118Z,22.65
2022-12-08T05:52:41.718Z,23.28
2022-12-08T05:53:47.937Z,23.21
2022-12-08T05:54:54.172Z,22.83
2022-12-08T05:56:00.583Z,23.83
2022-12-08T05:57:04.948Z,24.06
2022-12-08T05:58:15.103Z,22.72
2022-12-08T05:59:18.648Z,23.26
2022-12-08T06:00:25.481Z,23.42
2022-12-08T06:01:32.208Z,23.86
2022-12-08T06:02:39.258Z,23.58
2022-12-08T06:03:43.827Z,23.66
2022-12-08T06:04:49.888Z,23.18
2022-12-08T06:05:53.543Z,23.14
2022-12-08T06:06:59.623Z,23.52
2022-12-08T06:08:04.143Z,23.29
2022-12-08T06:09:10.620Z,23.36
2022-12-08T06:10:16.862Z,23.83
2022-12-08T06:11:25.441Z,23.18
2022-12-08T06:12:29.077Z,22.41
2022-12-08T06:13:36.017Z,22.79
2022-12-08T06:14:42.924Z,23.07
2022-12-08T06:15:46.365Z,22.03
2022-12-08T06:16:52.455Z,21.30
2022-12-08T06:17:56.614Z,21.88
2022-12-08T06:19:03.507Z,21.78
2022-12-08T06:20:09.316Z,22.26
2022-12-08T06:21:18.960Z,22.49
2022-12-08T06:22:22.586Z,23.52
2022-12-08T06:23:28.594Z,23.35
2022-12-08T06:24:35.459Z,23.59
2022-12-08T06:25:44.263Z,23.95
2022-12-08T06:26:47.925Z,23.18
2022-12-08T06:27:54.419Z,22.77
2022-12-08T06:29:00.966Z,22.36
2022-12-08T06:30:07.686Z,23.74
2022-12-08T06:31:18.653Z,23.67
2022-12-08T06:32:27.233Z,24.53
2022-12-08T06:33:33.718Z,23.24
2022-12-08T06:34:37.110Z,23.15
2022-12-08T06:35:44.028Z,24.33
2022-12-08T06:36:47.491Z,24.36
2022-12-08T06:37:53.952Z,23.42
2022-12-08T06:39:00.345Z,27.16
2022-12-08T06:40:07.511Z,26.31
2022-12-08T06:41:19.762Z,23.82
2022-12-08T06:42:38.531Z,22.50
2022-12-08T06:43:45.157Z,23.20
2022-12-08T06:44:49.164Z,22.84
2022-12-08T06:45:56.537Z,22.59
2022-12-08T06:47:03.610Z,21.98
2022-12-08T06:48:07.710Z,22.37
2022-12-08T06:49:13.943Z,21.96
2022-12-08T06:50:17.492Z,23.11
2022-12-08T06:51:25.762Z,22.82
2022-12-08T06:52:30.190Z,22.50
2022-12-08T06:53:36.172Z,22.23
2022-12-08T06:54:39.829Z,21.74
2022-12-08T06:56:03.323Z,21.60
2022-12-08T06:57:09.627Z,20.92
2022-12-08T06:58:18.184Z,21.07
2022-12-08T06:59:26.296Z,22.41
2022-12-08T07:00:29.861Z,22.32
2022-12-08T07:01:36.252Z,22.24
2022-12-08T07:02:42.530Z,22.06
2022-12-08T07:03:49.532Z,21.38
2022-12-08T07:04:55.711Z,21.73
2022-12-08T07:06:04.077Z,22.46
2022-12-08T07:07:08.100Z,21.42
2022-12-08T07:08:14.569Z,21.64
2022-12-08T07:09:21.484Z,22.39
2022-12-08T07:10:25.086Z,22.57
2022-12-08T07:11:31.819Z,23.03
2022-12-08T07:12:38.277Z,22.74
2022-12-08T07:13:44.554Z,22.45
2022-12-08T07:14:51.556Z,23.30
2022-12-08T07:15:57.608Z,22.55
2022-12-08T07:17:03.781Z,22.18
2022-12-08T07:18:07.446Z,21.83
2022-12-08T07:19:14.543Z,22.48
2022-12-08T07:20:22.092Z,21.95
2022-12-08T07:21:28.348Z,21.79
2022-12-08T07:22:31.760Z,22.53
2022-12-08T07:23:38.601Z,22.94
2022-12-08T07:24:44.828Z,22.82
2022-12-08T07:25:49.178Z,22.45
2022-12-08T07:26:55.226Z,22.94
2022-12-08T07:28:03.997Z,23.05
2022-12-08T07:29:10.867Z,22.25
2022-12-08T07:30:15.579Z,23.39
2022-12-08T07:31:26.969Z,23.97
2022-12-08T07:32:30.536Z,24.72
2022-12-08T07:33:37.990Z,24.75
2022-12-08T07:34:41.590Z,24.19
2022-12-08T07:35:49.408Z,24.55
2022-12-08T07:36:53.833Z,24.86
2022-12-08T07:38:00.250Z,23.33
2022-12-08T07:39:04.321Z,22.75
2022-12-08T07:40:14.150Z,24.68
2022-12-08T07:41:23.322Z,25.96
2022-12-08T07:42:30.976Z,24.47
2022-12-08T07:43:37.425Z,23.74
2022-12-08T07:44:43.791Z,23.97
2022-12-08T07:45:48.375Z,24.17
2022-12-08T07:46:54.544Z,24.04
2022-12-08T07:47:59.079Z,23.86
2022-12-08T07:49:05.201Z,24.10
2022-12-08T07:50:09.793Z,24.51
2022-12-08T07:51:19.085Z,26.68
2022-12-08T07:52:23.551Z,25.40
2022-12-08T07:53:30.443Z,26.56
2022-12-08T07:54:36.620Z,26.25
2022-12-08T07:55:43.464Z,25.66
2022-12-08T07:56:47.075Z,23.93
2022-12-08T07:57:55.380Z,23.17
2022-12-08T07:59:02.914Z,22.68
2022-12-08T08:00:11.381Z,22.15
2022-12-08T08:01:28.713Z,23.47
2022-12-08T08:02:35.081Z,24.05
2022-12-08T08:03:41.420Z,25.71
2022-12-08T08:04:48.577Z,27.03
2022-12-08T08:05:56.582Z,27.70
2022-12-08T08:07:03.014Z,27.94
2022-12-08T08:08:09.692Z,29.64
2022-12-08T08:09:15.880Z,30.12
2022-12-08T08:10:20.815Z,26.29
2022-12-08T08:11:28.873Z,26.36
2022-12-08T08:12:33.157Z,25.18
2022-12-08T08:13:40.289Z,24.28
2022-12-08T08:14:49.102Z,23.03
2022-12-08T08:15:56.940Z,24.37
2022-12-08T08:17:00.906Z,24.15
2022-12-08T08:18:10.220Z,23.20
2022-12-08T08:19:14.161Z,23.31
2022-12-08T08:20:21.552Z,23.54
2022-12-08T08:21:45.194Z,24.00
2022-12-08T08:22:56.104Z,24.23
2022-12-08T08:24:00.322Z,22.95
2022-12-08T08:25:07.426Z,23.15
2022-12-08T08:26:11.282Z,24.80
2022-12-08T08:27:19.857Z,23.67
2022-12-08T08:28:23.430Z,23.18
2022-12-08T08:29:29.555Z,23.19
2022-12-08T08:30:36.187Z,23.12
2022-12-08T08:31:42.377Z,22.65
2022-12-08T08:32:49.669Z,23.19
2022-12-08T08:33:56.979Z,21.73
2022-12-08T08:35:00.556Z,21.84
2022-12-08T08:36:11.792Z,21.06
2022-12-08T08:37:19.615Z,22.92
2022-12-08T08:38:26.777Z,22.42
2022-12-08T08:39:40.989Z,22.07
2022-12-08T08:40:44.980Z,23.79
2022-12-08T08:41:51.063Z,23.24
2022-12-08T08:42:54.634Z,25.58
2022-12-08T08:44:01.640Z,26.68
2022-12-08T08:45:09.089Z,24.57
2022-12-08T08:46:15.201Z,25.96
2022-12-08T08:47:21.471Z,28.04
2022-12-08T08:48:25.649Z,24.40
2022-12-08T08:49:33.310Z,23.51
2022-12-08T08:50:39.514Z,21.62
2022-12-08T08:51:44.023Z,20.57
2022-12-08T08:52:50.569Z,20.42
2022-12-08T08:53:54.083Z,20.50
2022-12-08T08:55:00.975Z,19.69
2022-12-08T08:56:11.078Z,20.51
2022-12-08T08:57:23.636Z,21.35
2022-12-08T08:58:31.417Z,20.07
2022-12-08T08:59:37.477Z,20.47
2022-12-08T09:00:45.475Z,20.15
2022-12-08T09:01:54.444Z,20.70
2022-12-08T09:03:00.571Z,20.07
2022-12-08T09:04:08.557Z,20.69
2022-12-08T09:05:13.614Z,21.24
2022-12-08T09:06:22.069Z,19.04
2022-12-08T09:07:27.248Z,19.78
2022-12-08T09:08:33.334Z,18.81
2022-12-08T09:09:40.535Z,18.60
2022-12-08T09:10:47.706Z,18.81
2022-12-08T09:11:51.956Z,18.56
2022-12-08T09:12:58.035Z,18.40
2022-12-08T09:14:01.551Z,19.20
2022-12-08T09:15:09.091Z,20.94
2022-12-08T09:16:15.873Z,24.17
2022-12-08T09:17:26.535Z,21.69
2022-12-08T09:18:33.149Z,20.74
2022-12-08T09:19:39.180Z,21.82
2022-12-08T09:20:45.441Z,23.92
2022-12-08T09:21:51.688Z,23.97
2022-12-08T09:22:58.646Z,23.43
2022-12-08T09:24:04.746Z,23.49
2022-12-08T09:25:09.479Z,22.13
2022-12-08T09:26:15.784Z,21.37
2022-12-08T09:27:19.333Z,22.20
2022-12-08T09:28:26.235Z,20.84
2022-12-08T09:29:35.444Z,20.39
2022-12-08T09:30:42.691Z,21.47
2022-12-08T09:31:48.924Z,20.10
2022-12-08T09:32:57.714Z,20.05
2022-12-08T09:34:02.392Z,20.95
2022-12-08T09:35:08.997Z,20.29
2022-12-08T09:36:15.461Z,21.05
2022-12-08T09:37:23.163Z,21.16
2022-12-08T09:38:26.544Z,19.68
2022-12-08T09:39:33.366Z,19.92
2022-12-08T09:40:52.835Z,20.08
2022-12-08T09:42:05.279Z,20.31
2022-12-08T09:43:32.725Z,20.11
2022-12-08T09:45:00.519Z,21.26
2022-12-08T09:46:12.499Z,20.03
2022-12-08T09:47:32.132Z,20.31
2022-12-08T09:48:55.998Z,19.34
2022-12-08T09:50:13.874Z,20.19
2022-12-08T09:51:18.185Z,19.84
2022-12-08T09:52:31.075Z,19.38
2022-12-08T09:53:45.476Z,20.30
2022-12-08T09:54:49.156Z,19.92
2022-12-08T09:56:03.301Z,20.40
2022-12-08T09:57:21.281Z,20.65
2022-12-08T09:58:47.864Z,21.50
2022-12-08T10:00:03.387Z,20.06
2022-12-08T10:01:14.855Z,23.56
2022-12-08T10:02:27.493Z,24.89
2022-12-08T10:03:32.032Z,22.61
2022-12-08T10:04:42.635Z,22.14
2022-12-08T10:06:04.507Z,21.56
2022-12-08T10:07:27.156Z,20.53
2022-12-08T10:08:50.024Z,21.33
2022-12-08T10:10:10.556Z,21.92
2022-12-08T10:11:27.593Z,22.41
2022-12-08T10:12:46.352Z,23.25
2022-12-08T10:14:11.574Z,21.43
2022-12-08T10:15:48.979Z,19.15
2022-12-08T10:17:07.776Z,20.13
2022-12-08T10:18:23.342Z,19.26
2022-12-08T10:19:32.125Z,18.61
2022-12-08T10:20:45.562Z,19.16
2022-12-08T10:21:53.886Z,18.76
2022-12-08T10:23:19.382Z,18.95
2022-12-08T10:24:39.170Z,19.68
2022-12-08T10:25:50.528Z,18.99
2022-12-08T10:26:59.210Z,18.58
2022-12-08T10:28:05.465Z,18.62
2022-12-08T10:29:16.088Z,18.96
2022-12-08T10:30:25.651Z,18.70
2022-12-08T10:31:34.746Z,18.82
2022-12-08T10:32:41.426Z,17.78
2022-12-08T10:33:51.132Z,18.73
2022-12-08T10:35:09.543Z,18.20
2022-12-08T10:36:19.154Z,18.92
2022-12-08T10:37:23.000Z,19.06
2022-12-08T10:38:34.371Z,18.37
2022-12-08T10:39:41.418Z,18.96
2022-12-08T10:40:50.755Z,19.12
2022-12-08T10:42:03.108Z,19.11
2022-12-08T10:43:16.136Z,18.27
2022-12-08T10:44:22.287Z,17.64
2022-12-08T10:45:31.301Z,18.52
2022-12-08T10:46:41.941Z,18.88
2022-12-08T10:48:00.468Z,18.76
2022-12-08T10:49:15.716Z,19.13
2022-12-08T10:50:24.723Z,18.35
2022-12-08T10:51:42.489Z,17.74
2022-12-08T10:52:55.717Z,17.00
2022-12-08T10:54:01.899Z,18.21
2022-12-08T10:55:15.514Z,19.42
2022-12-08T10:56:21.885Z,19.42
2022-12-08T10:57:25.695Z,19.57
2022-12-08T10:58:36.956Z,20.08
2022-12-08T10:59:43.106Z,19.43
2022-12-08T11:00:49.465Z,21.56
2022-12-08T11:01:59.300Z,20.63
2022-12-08T11:03:05.741Z,19.17
2022-12-08T11:04:21.536Z,20.38
2022-12-08T11:05:35.213Z,19.23
2022-12-08T11:06:45.636Z,19.38
2022-12-08T11:07:54.179Z,19.54
2022-12-08T11:09:04.538Z,20.89
2022-12-08T11:10:20.725Z,19.59
2022-12-08T11:11:47.339Z,19.66
2022-12-08T11:12:53.625Z,21.14
2022-12-08T11:14:00.498Z,21.03
2022-12-08T11:15:08.901Z,20.51
2022-12-08T11:16:19.639Z,22.40
2022-12-08T11:17:30.571Z,21.69
2022-12-08T11:18:47.165Z,23.66
2022-12-08T11:19:59.226Z,26.63
2022-12-08T11:21:14.827Z,23.68
2022-12-08T11:22:30.734Z,22.71
2022-12-08T11:23:40.193Z,22.50
2022-12-08T11:24:43.528Z,23.45
2022-12-08T11:25:51.240Z,23.27
2022-12-08T11:27:05.329Z,20.94
2022-12-08T11:28:14.758Z,22.10
2022-12-08T11:29:20.871Z,19.79
2022-12-08T11:30:33.544Z,18.58
2022-12-08T11:31:50.039Z,18.57
2022-12-08T11:33:02.694Z,19.72
2022-12-08T11:34:17.548Z,19.82
2022-12-08T11:35:32.398Z,20.90
2022-12-08T11:36:41.254Z,21.72
2022-12-08T11:37:47.430Z,22.47
2022-12-08T11:38:59.835Z,20.61
2022-12-08T11:40:18.245Z,19.88
2022-12-08T11:41:32.485Z,21.75
2022-12-08T11:42:56.631Z,22.50
2022-12-08T11:44:23.917Z,20.72
2022-12-08T11:45:35.438Z,20.86
2022-12-08T11:46:51.749Z,19.93
2022-12-08T11:48:16.657Z,20.20
2022-12-08T11:49:23.739Z,21.68
2022-12-08T11:50:36.912Z,20.21
2022-12-08T11:51:54.156Z,19.19
2022-12-08T11:53:03.286Z,19.48
2022-12-08T11:54:25.376Z,19.90
2022-12-08T11:55:45.230Z,20.32
2022-12-08T11:56:59.539Z,21.11
2022-12-08T11:58:18.647Z,20.36
2022-12-08T11:59:33.915Z,20.79
2022-12-08T12:00:38.284Z,21.93
2022-12-08T12:01:44.606Z,20.24
2022-12-08T12:03:04.126Z,21.35
2022-12-08T12:04:27.223Z,20.48
2022-12-08T12:06:13.591Z,22.00
2022-12-08T12:08:12.527Z,21.03
2022-12-08T12:09:34.658Z,21.35
2022-12-08T12:11:03.665Z,21.49
2022-12-08T12:12:26.444Z,20.64
2022-12-08T12:14:08.652Z,21.82
2022-12-08T12:15:58.774Z,22.06
2022-12-08T12:17:10.544Z,21.85
2022-12-08T12:18:30.477Z,22.85
2022-12-08T12:19:43.472Z,23.84
2022-12-08T12:20:58.110Z,24.74
2022-12-08T12:22:19.237Z,24.02
2022-12-08T12:23:40.975Z,23.77
2022-12-08T12:24:54.307Z,24.58
2022-12-08T12:26:04.613Z,26.33
2022-12-08T12:27:31.005Z,24.69
2022-12-08T12:28:53.534Z,23.48
2022-12-08T12:30:07.841Z,25.25
2022-12-08T12:31:21.127Z,23.39
2022-12-08T12:32:42.702Z,23.14
2022-12-08T12:33:51.920Z,23.14
2022-12-08T12:35:03.909Z,23.74
2022-12-08T12:36:14.865Z,24.38
2022-12-08T12:37:27.898Z,24.96
2022-12-08T12:38:54.322Z,28.18
2022-12-08T12:40:10.038Z,29.14
2022-12-08T12:41:25.470Z,25.66
2022-12-08T12:42:49.364Z,26.77
2022-12-08T12:44:25.999Z,34.41
2022-12-08T12:45:36.180Z,37.28
2022-12-08T12:46:55.856Z,35.77
2022-12-08T12:48:24.637Z,37.88
2022-12-08T12:50:07.581Z,38.21
2022-12-08T12:51:46.562Z,35.52
2022-12-08T12:52:54.650Z,34.73
2022-12-08T12:54:25.220Z,31.28
2022-12-08T12:55:57.797Z,35.19
2022-12-08T12:57:26.888Z,37.16
2022-12-08T12:58:43.958Z,38.01
2022-12-08T13:00:09.109Z,41.40
2022-12-08T13:01:54.220Z,44.55
2022-12-08T13:03:02.073Z,37.51
2022-12-08T13:04:11.181Z,36.87
2022-12-08T13:05:24.078Z,39.86
2022-12-08T13:06:43.808Z,37.11
2022-12-08T13:07:58.312Z,37.48
2022-12-08T13:09:06.535Z,40.55
2022-12-08T13:10:24.485Z,39.08
2022-12-08T13:11:28.485Z,37.80
2022-12-08T13:12:34.867Z,39.45
2022-12-08T13:13:58.428Z,35.88
2022-12-08T13:15:19.877Z,33.59
2022-12-08T13:16:31.728Z,35.02
2022-12-08T13:17:46.822Z,37.08
2022-12-08T13:18:56.718Z,36.23
2022-12-08T13:20:09.125Z,36.88
2022-12-08T13:21:22.087Z,37.21
2022-12-08T13:22:53.118Z,40.39
2022-12-08T13:24:32.637Z,41.83
2022-12-08T13:25:55.161Z,43.07
2022-12-08T13:27:37.148Z,44.80
2022-12-08T13:29:18.478Z,45.34
2022-12-08T13:30:47.321Z,44.48
2022-12-08T13:31:57.245Z,45.38
2022-12-08T13:33:17.832Z,44.86
2022-12-08T13:34:44.792Z,46.58
2022-12-08T13:36:05.293Z,46.65
2022-12-08T13:37:29.465Z,41.58
2022-12-08T13:38:41.904Z,44.89
2022-12-08T13:40:00.836Z,44.91
2022-12-08T13:41:23.700Z,45.03
2022-12-08T13:42:45.607Z,46.09
2022-12-08T13:44:50.856Z,42.00
2022-12-08T13:46:20.194Z,41.93
2022-12-08T13:47:32.279Z,42.77
2022-12-08T13:50:09.852Z,38.75
2022-12-08T13:54:35.315Z,45.76
2022-12-08T13:57:00.865Z,45.74
2022-12-08T13:57:53.594Z,47.11
2022-12-08T13:59:12.386Z,47.21
2022-12-08T14:00:27.600Z,45.29
2022-12-08T14:01:33.931Z,43.71
2022-12-08T14:02:48.139Z,41.37
2022-12-08T14:06:10.464Z,43.43
2022-12-08T14:07:07.925Z,44.99
2022-12-08T14:08:57.943Z,49.81
2022-12-08T14:10:00.084Z,49.32
2022-12-08T14:11:07.506Z,50.05
2022-12-08T14:12:24.821Z,52.80
2022-12-08T14:13:30.353Z,52.05
2022-12-08T14:15:02.530Z,51.96
2022-12-08T14:16:35.866Z,62.52
2022-12-08T14:17:44.301Z,67.53
2022-12-08T14:18:50.387Z,54.16
2022-12-08T14:20:04.447Z,60.33
2022-12-08T14:21:21.745Z,66.89
2022-12-08T14:22:28.513Z,57.28
2022-12-08T14:23:36.488Z,49.34
2022-12-08T14:24:48.689Z,56.28
2022-12-08T14:25:59.618Z,66.57
2022-12-08T14:27:12.857Z,130.51
2022-12-08T14:28:20.210Z,118.82
2022-12-08T14:29:45.980Z,134.75
2022-12-08T14:30:54.192Z,126.57
2022-12-08T14:32:01.262Z,130.18
2022-12-08T14:33:12.617Z,102.59
2022-12-08T14:34:16.530Z,117.74
2022-12-08T14:35:27.919Z,117.05
2022-12-08T14:36:33.643Z,132.26
2022-12-08T14:37:45.405Z,136.37
2022-12-08T14:38:58.852Z,132.73
2022-12-08T14:40:10.280Z,152.33
2022-12-08T14:41:19.050Z,140.18
2022-12-08T14:42:29.884Z,120.65
2022-12-08T14:43:37.245Z,87.55
2022-12-08T14:44:41.675Z,79.25
2022-12-08T14:45:57.371Z,69.18
2022-12-08T14:47:06.637Z,69.08
2022-12-08T14:48:24.230Z,79.96
2022-12-08T14:49:35.590Z,84.40
2022-12-08T14:50:57.758Z,83.21
2022-12-08T14:52:06.264Z,89.80
2022-12-08T14:53:20.843Z,123.79
2022-12-08T14:54:27.884Z,118.61
2022-12-08T14:55:40.508Z,116.94
2022-12-08T14:56:56.286Z,115.06
2022-12-08T14:58:02.508Z,118.12
2022-12-08T14:59:17.498Z,117.80
2022-12-08T15:00:28.789Z,97.37
2022-12-08T15:01:36.573Z,89.78
2022-12-08T15:02:49.725Z,73.23
2022-12-08T15:03:56.696Z,70.64
2022-12-08T15:05:11.490Z,70.15
2022-12-08T15:06:24.300Z,65.14
2022-12-08T15:07:36.030Z,68.18
2022-12-08T15:08:59.127Z,60.47
2022-12-08T15:10:29.816Z,63.50
2022-12-08T15:11:38.914Z,69.36
2022-12-08T15:13:09.231Z,67.79
2022-12-08T15:14:33.670Z,64.63
2022-12-08T15:15:52.983Z,65.62
2022-12-08T15:16:59.254Z,67.62
2022-12-08T15:18:18.261Z,68.32
2022-12-08T15:19:33.167Z,67.15
2022-12-08T15:20:47.466Z,57.90
2022-12-08T15:21:52.165Z,50.79